Portada
METAR-TAF:

METAR-TAF

Aeroports :

San Andrés, Colòmbia

latitud: 12-35N, longitud: 081-43W, altitud: 1 m

Observació

L'informe es va fer fa 1 hora i 2 minuts, a les 14:00 UTC
Vent 17 kt del Est/Nord-Est
Temperatura 27°C
Humitat 84%
Pressió 1013 hPa
Visibilitat 10 km o més
Escasses núvols a una alçada de 1400 ft
Cel ennuvolat a una alçada de 8000 ft

METAR: SKSP 121400Z 07017KT 9999 FEW014 BKN080 27/24 A2992 REDZ

Hora: 10:02 (15:02 UTC)

Pronòstic

L'informe es va fer fa 4 hores i 32 minuts, a les 10:30 UTC
Pronòstic vàlid del 12 a les 12 UTC al 13 a les 12 UTC
Vent 14 kt del Est
Visibilitat 10 km o més
Escasses núvols a una alçada de 1800 ft
Cel ennuvolat a una alçada de 7000 ft
Temporalment
l' 12 a les 12 UTC al 12 a les 14 UTC
Visibilitat: 5000 m
Núvols disperses a una alçada de 1500 ft, Cumulonimbus.
Núvols disperses a una alçada de 1700 ft
tempesta, pluja

TAF: SKSP 121030Z 1212/1312 09014KT 9999 FEW018 BKN070 TEMPO 1212/1214 5000 TSRA SCT015CB SCT017 TX31/1219Z TN25/1310Z

Observacions i pronòstics meteorològics de més de 4000 aeroports (METAR i TAF).

Les estacions disponibles són els punts grocs i vermells al mapa.

Posi el ratolí al punt desitjat per veure el nom de l'estació.

Feu clic per veure les observacions i els pronòstics meteorològics.

Per canviar el mapa: feu clic els botons verds amb una creu de color negre per apropar; al botó verd amb un guió per allunyar la imatge; o en les fletxes verdes per a mapes adjacents.


METAR-TAF: